aviador You're here:

MMHO Decoded Metar

HERMOSILLO in MEXICO
Report Time2017-07-24 19:47:00
UTC Time2017-07-24 20:48:01
Flight Rules vfr VFR
WindCalm
Visibility9999 m
Phenomena:N/A
Clouds:Few 030 Hf
Expected CloudBase > 7,200 ft AGL from Temp-Dew spread
CeilingNone
Temp37°C (ISA +23)
Dew Point19°C (35% RH)
Heat Index39.3°C
QNH1012 hPa
Density Alt3,550 ft
Elevation604 ft
Report Wrong Elevation
Raw Report
METAR MMHO 241947Z 00000KT 10SM FEW030 37/19 A2987
RMK 8/100 ISOL TCU N HZY RTS=

Extra information for MMHO:More info

Metar Taf Metar & Taf Last 4 Metars F.Rules Stats Wind Profile Meteogram Temp Stats Airport Information Weather charts Add Link Nearby VenuesMetar ALERT Operation Metar Decoded Social comments